Strona główna
METAR-TAF:

METAR-TAF

Lotnisko :

Port lotniczy Sankt Gallen-Altenrhein

Sankt Gallen, Szwajcaria

Szerokość geograficzna: 47-29-06N, Długość geograficzna: 009-33-43E, wysokość: 398 m

Aktualna obserwacja pogody

Raport powstał 14 minut temu, godzina 19:20 UTC
Wiatr 6 kt od wschód, zmienny między wschodnio-północny wschód i południowy wschód
Temperatura 8°C
Wilgotność 66%
Ciśnienie 1009 hPa
Widzialność 10 km lub więcej
Przerywane chmury na wysokości 9000 ft

METAR: LSZR 081920Z 10006KT 060V140 9999 BKN090 08/02 Q1009 NOSIG RMK K

czas: 20:34 (19:34 UTC)

Prognoza

Raport powstał 5 godziny i 9 minut temu, godzina 14:25 UTC
Prognoza ważna od 08 godzina 15 UTC do 08 godzina 24 UTC
Wiatr 5 kt od wschodnio-południowy wschód
Widzialność 10 km lub więcej
Rozproszone chmury na wysokości 4000 ft
Przejściowo
od 08 godzina 20 UTC do 08 godzina 24 UTC
przelotny opad deszczu

TAF: LSZR 081425Z 0815/0824 12005KT 9999 SCT040 TEMPO 0820/0824 SHRA

Obserwacja i prognoza pogody dla ponad 4000 lotnisk (raport METAR i TAF).

Dostępne stacje oznaczono żółtymi i czerwonymi punktami na mapie.

Najedź kursorem aby zobaczyć nazwę stacji.

Kliknij aby zobaczyć obserwacje i prognozy pogody.

Aby zmienić mapę: kliknij na zielony przycisk z czarnym krzyżykiem, aby powiększyć; na zielony przycisk z myślnikiem, aby pomniejszyć; na zielone strzałki, aby przejść do map sąsiednich.


METAR-TAF: